createdAt,value
2023-03-04T00:30:01.886Z,33.60
2023-03-04T00:33:49.149Z,32.92
2023-03-04T00:56:52.945Z,30.49
2023-03-04T00:57:52.803Z,31.57
2023-03-04T00:59:08.941Z,30.08
2023-03-04T00:59:52.744Z,29.39
2023-03-04T01:00:52.967Z,30.92
2023-03-04T01:01:52.689Z,31.15
2023-03-04T01:02:52.620Z,28.91
2023-03-04T01:03:52.618Z,29.01
2023-03-04T01:04:52.656Z,30.01
2023-03-04T01:05:52.640Z,30.66
2023-03-04T01:06:52.664Z,27.66
2023-03-04T01:07:52.612Z,29.53
2023-03-04T01:08:52.667Z,31.65
2023-03-04T01:09:52.668Z,29.35
2023-03-04T01:10:52.846Z,28.26
2023-03-04T01:11:52.581Z,28.26
2023-03-04T01:12:52.539Z,29.23
2023-03-04T01:13:52.561Z,28.84
2023-03-04T01:14:52.544Z,28.82
2023-03-04T01:15:52.542Z,29.35
2023-03-04T01:16:52.598Z,28.84
2023-03-04T01:17:52.538Z,28.92
2023-03-04T01:18:52.483Z,30.35
2023-03-04T01:19:52.483Z,30.18
2023-03-04T01:20:52.499Z,30.00
2023-03-04T01:21:52.537Z,30.31
2023-03-04T01:22:52.511Z,31.63
2023-03-04T01:23:52.520Z,30.99
2023-03-04T01:24:52.454Z,28.73
2023-03-04T01:25:52.481Z,31.49
2023-03-04T01:26:52.473Z,29.55
2023-03-04T01:28:52.432Z,29.54
2023-03-04T01:29:52.461Z,30.56
2023-03-04T01:30:52.507Z,31.35
2023-03-04T01:31:52.402Z,32.56
2023-03-04T01:32:52.409Z,32.86
2023-03-04T01:33:52.426Z,31.05
2023-03-04T01:34:52.426Z,31.60
2023-03-04T01:35:52.484Z,31.42
2023-03-04T01:36:52.404Z,29.57
2023-03-04T01:37:52.400Z,31.10
2023-03-04T02:33:28.906Z,18.21
2023-03-04T02:34:28.042Z,38.15
2023-03-04T02:35:28.055Z,37.90
2023-03-04T02:36:28.024Z,40.01
2023-03-04T02:37:28.156Z,37.51
2023-03-04T02:38:27.986Z,40.93
2023-03-04T02:39:28.002Z,38.39
2023-03-04T02:40:28.053Z,36.12
2023-03-04T02:41:28.005Z,35.85
2023-03-04T02:42:27.972Z,37.17
2023-03-04T02:43:27.922Z,35.93
2023-03-04T02:44:27.967Z,36.35
2023-03-04T02:45:27.932Z,36.54
2023-03-04T02:46:27.978Z,37.29
2023-03-04T02:47:27.983Z,37.84
2023-03-04T02:48:27.911Z,39.19
2023-03-04T02:49:27.933Z,40.19
2023-03-04T02:50:27.906Z,40.48
2023-03-04T02:51:27.903Z,42.16
2023-03-04T02:52:27.879Z,43.15
2023-03-04T02:53:27.937Z,43.59
2023-03-04T02:54:27.881Z,45.01
2023-03-04T02:55:27.849Z,46.01
2023-03-04T02:56:27.906Z,43.47
2023-03-04T02:57:27.916Z,45.28
2023-03-04T02:58:27.872Z,42.20
2023-03-04T02:59:27.902Z,41.65
2023-03-04T03:22:48.010Z,28.90
2023-03-04T03:23:47.779Z,30.92
2023-03-04T03:24:47.978Z,31.35
2023-03-04T03:25:47.728Z,30.98
2023-03-04T03:26:47.712Z,30.66
2023-03-04T03:27:47.688Z,29.43
2023-03-04T03:28:47.700Z,31.72
2023-03-04T03:29:47.737Z,29.50
2023-03-04T03:30:47.660Z,29.34
2023-03-04T03:31:47.692Z,30.67
2023-03-04T03:32:47.700Z,29.82
2023-03-04T03:33:47.681Z,32.11
2023-03-04T03:34:47.734Z,29.51
2023-03-04T03:35:47.673Z,30.20
2023-03-04T03:36:47.629Z,31.06
2023-03-04T03:37:47.660Z,30.25
2023-03-04T03:38:47.646Z,31.78
2023-03-04T03:39:47.612Z,29.55
2023-03-04T03:40:47.630Z,30.11
2023-03-04T03:41:47.618Z,30.27
2023-03-04T03:42:47.625Z,31.46
2023-03-04T03:43:47.578Z,32.67
2023-03-04T03:44:47.579Z,30.03
2023-03-04T03:45:47.608Z,31.10
2023-03-04T03:46:47.591Z,32.31
2023-03-04T03:48:03.926Z,32.42
2023-03-04T04:45:52.669Z,15.01
2023-03-04T04:46:52.389Z,34.74
2023-03-04T04:47:52.654Z,34.32
2023-03-04T04:48:52.413Z,33.99
2023-03-04T04:49:52.253Z,33.56
2023-03-04T04:50:52.311Z,33.85
2023-03-04T04:51:52.275Z,32.46
2023-03-04T04:52:52.264Z,33.25
2023-03-04T04:53:52.326Z,35.75
2023-03-04T04:54:52.245Z,32.69
2023-03-04T04:55:52.224Z,32.58
2023-03-04T04:56:52.285Z,30.85
2023-03-04T04:57:52.224Z,34.93
2023-03-04T04:58:52.435Z,32.72
2023-03-04T04:59:52.194Z,32.19
2023-03-04T05:00:52.187Z,32.45
2023-03-04T05:01:52.217Z,33.52
2023-03-04T05:02:52.187Z,31.93
2023-03-04T05:03:52.198Z,32.23
2023-03-04T05:04:52.171Z,33.43
2023-03-04T05:05:52.302Z,33.49
2023-03-04T05:06:52.250Z,32.92
2023-03-04T05:07:52.298Z,32.20
2023-03-04T05:08:52.342Z,31.41
2023-03-04T05:09:52.413Z,31.62
2023-03-04T05:10:52.409Z,31.89
2023-03-04T05:11:52.458Z,31.40
2023-03-04T05:12:52.547Z,34.55
2023-03-04T05:13:52.523Z,32.29
2023-03-04T05:14:52.583Z,31.33
2023-03-04T05:15:52.675Z,32.08
2023-03-04T05:16:52.709Z,31.66
2023-03-04T05:17:52.728Z,33.90
2023-03-04T05:18:52.833Z,33.22
2023-03-04T05:19:52.824Z,33.17
2023-03-04T05:20:52.968Z,32.99
2023-03-04T05:21:53.049Z,32.17
2023-03-04T05:22:53.568Z,32.23
2023-03-04T05:23:53.081Z,30.29
2023-03-04T05:24:53.135Z,32.73
2023-03-04T05:25:53.165Z,31.93
2023-03-04T05:37:53.784Z,30.77
2023-03-04T05:38:53.880Z,31.15
2023-03-04T05:39:53.956Z,31.66
2023-03-04T05:40:53.980Z,30.99
2023-03-04T05:41:54.051Z,30.11
2023-03-04T05:42:54.110Z,30.96
2023-03-04T05:43:54.146Z,31.88
2023-03-04T05:44:54.174Z,30.63
2023-03-04T05:45:54.194Z,30.19
2023-03-04T05:46:54.275Z,30.08
2023-03-04T05:47:54.319Z,32.06
2023-03-04T05:48:54.317Z,31.16
2023-03-04T05:49:54.301Z,30.89
2023-03-04T05:50:54.375Z,30.19
2023-03-04T05:51:54.425Z,32.87
2023-03-04T05:52:54.442Z,31.12
2023-03-04T05:53:54.564Z,31.65
2023-03-04T05:54:54.545Z,29.98
2023-03-04T05:55:54.562Z,31.09
2023-03-04T05:56:54.621Z,31.44
2023-03-04T05:57:54.629Z,31.44
2023-03-04T05:58:54.671Z,31.12
2023-03-04T05:59:54.675Z,30.54
2023-03-04T06:00:54.698Z,31.63
2023-03-04T06:01:54.712Z,30.03
2023-03-04T06:02:54.761Z,31.06
2023-03-04T06:03:54.752Z,33.08
2023-03-04T06:04:54.680Z,30.28
2023-03-04T06:05:54.724Z,31.43
2023-03-04T06:06:54.743Z,30.93
2023-03-04T06:07:54.688Z,30.67
2023-03-04T06:08:54.716Z,29.71
2023-03-04T06:09:54.713Z,31.31
2023-03-04T06:10:54.691Z,31.08
2023-03-04T07:51:30.734Z,21.34
2023-03-04T07:52:30.393Z,29.36
2023-03-04T07:53:30.611Z,29.63
2023-03-04T07:54:30.309Z,29.76
2023-03-04T07:55:30.194Z,29.08
2023-03-04T07:56:31.223Z,27.35
2023-03-04T07:57:30.252Z,26.97
2023-03-04T07:58:30.315Z,28.40
2023-03-04T08:00:30.114Z,27.87
2023-03-04T08:01:30.314Z,28.97
2023-03-04T08:02:30.158Z,27.37
2023-03-04T08:03:30.044Z,27.84
2023-03-04T08:04:30.108Z,26.67
2023-03-04T08:05:30.021Z,26.60
2023-03-04T08:12:49.668Z,25.24
2023-03-04T08:13:49.665Z,24.71
2023-03-04T08:14:49.594Z,24.21
2023-03-04T08:15:49.637Z,23.54
2023-03-04T08:16:49.634Z,24.72
2023-03-04T08:17:49.605Z,25.39
2023-03-04T08:18:49.669Z,27.75
2023-03-04T08:19:49.592Z,23.43
2023-03-04T08:20:49.557Z,23.64
2023-03-04T08:21:49.557Z,27.16
2023-03-04T08:22:49.581Z,25.58
2023-03-04T08:23:49.616Z,25.61
2023-03-04T08:24:49.633Z,25.25
2023-03-04T08:25:49.703Z,25.54
2023-03-04T08:26:49.691Z,27.17
2023-03-04T08:27:49.751Z,26.04
2023-03-04T08:28:49.792Z,25.50
2023-03-04T08:29:49.859Z,23.92
2023-03-04T08:30:49.893Z,26.26
2023-03-04T08:31:50.092Z,24.23
2023-03-04T08:32:50.045Z,26.63
2023-03-04T08:33:49.985Z,26.31
2023-03-04T08:34:50.039Z,25.68
2023-03-04T08:35:50.095Z,26.27
2023-03-04T08:36:50.075Z,27.22
2023-03-04T08:37:50.122Z,25.77
2023-03-04T08:38:50.155Z,26.88
2023-03-04T08:39:50.157Z,24.72
2023-03-04T08:40:50.261Z,25.32
2023-03-04T08:41:50.217Z,25.04
2023-03-04T08:42:50.215Z,24.17
2023-03-04T08:43:50.277Z,25.04
2023-03-04T08:44:50.270Z,23.07
2023-03-04T08:45:50.395Z,23.87
2023-03-04T08:46:50.388Z,24.60
2023-03-04T08:47:50.367Z,24.10
2023-03-04T08:48:50.309Z,22.54
2023-03-04T08:49:50.338Z,22.64
2023-03-04T08:50:50.405Z,23.82
2023-03-04T08:51:50.419Z,23.34
2023-03-04T08:52:50.509Z,22.79
2023-03-04T08:53:50.512Z,21.18
2023-03-04T08:54:50.599Z,22.74
2023-03-04T08:55:50.601Z,24.29
2023-03-04T08:56:50.611Z,22.99
2023-03-04T08:57:50.610Z,24.84
2023-03-04T08:58:50.622Z,25.05
2023-03-04T08:59:50.625Z,25.86
2023-03-04T09:00:50.653Z,22.01
2023-03-04T09:01:50.824Z,23.77
2023-03-04T09:02:50.817Z,23.64
2023-03-04T09:03:50.812Z,23.65
2023-03-04T09:04:50.768Z,24.70
2023-03-04T09:05:50.777Z,22.61
2023-03-04T09:06:52.813Z,24.35
2023-03-04T09:07:50.789Z,22.92
2023-03-04T09:08:50.797Z,23.60
2023-03-04T09:09:50.791Z,23.63
2023-03-04T09:10:50.751Z,21.76
2023-03-04T09:11:50.751Z,22.98
2023-03-04T09:12:50.763Z,24.93
2023-03-04T09:13:50.827Z,25.27
2023-03-04T09:15:04.498Z,24.30
2023-03-04T09:15:51.833Z,25.16
2023-03-04T09:16:50.746Z,25.23
2023-03-04T09:17:50.728Z,24.09
2023-03-04T09:18:50.701Z,26.06
2023-03-04T09:19:50.778Z,25.50
2023-03-04T09:20:50.721Z,26.26
2023-03-04T09:21:50.676Z,27.15
2023-03-04T09:22:50.687Z,28.38
2023-03-04T09:23:50.677Z,26.26
2023-03-04T09:24:50.656Z,26.26
2023-03-04T09:25:50.711Z,24.97
2023-03-04T09:26:50.657Z,26.82
2023-03-04T09:27:50.649Z,26.10
2023-03-04T09:28:50.626Z,23.90
2023-03-04T09:29:50.651Z,24.58
2023-03-04T09:30:50.635Z,25.53
2023-03-04T09:31:50.745Z,24.46
2023-03-04T09:32:50.873Z,24.69
2023-03-04T09:33:50.859Z,23.39
2023-03-04T09:34:50.899Z,22.56
2023-03-04T09:35:50.972Z,23.63
2023-03-04T09:36:51.010Z,23.29
2023-03-04T09:37:51.006Z,22.48
2023-03-04T09:38:51.046Z,21.71
2023-03-04T09:39:51.005Z,21.12
2023-03-04T09:40:51.035Z,21.42
2023-03-04T09:41:51.064Z,20.37
2023-03-04T09:42:51.088Z,20.54
2023-03-04T09:43:51.078Z,22.24
2023-03-04T09:44:51.173Z,22.53
2023-03-04T09:47:11.031Z,23.69
2023-03-04T09:49:30.360Z,22.05
2023-03-04T09:50:30.120Z,21.66
2023-03-04T09:51:30.150Z,21.03
2023-03-04T09:52:30.136Z,22.00
2023-03-04T09:53:30.148Z,20.13
2023-03-04T09:54:30.148Z,20.87
2023-03-04T09:55:30.126Z,21.17
2023-03-04T09:56:30.082Z,20.53
2023-03-04T09:57:30.090Z,21.67
2023-03-04T09:59:55.652Z,12.95
2023-03-04T10:00:52.040Z,20.66
2023-03-04T10:01:51.976Z,19.46
2023-03-04T10:02:51.977Z,21.01
2023-03-04T10:03:52.024Z,20.91
2023-03-04T10:07:53.670Z,16.19
2023-03-04T10:12:54.685Z,21.87
2023-03-04T10:19:57.254Z,13.92
2023-03-04T10:20:57.561Z,19.68
2023-03-04T10:30:36.168Z,16.56
2023-03-04T10:31:35.986Z,18.28
2023-03-04T10:32:36.287Z,17.14
2023-03-04T10:33:35.916Z,16.34
2023-03-04T10:34:35.855Z,15.45
2023-03-04T10:35:35.877Z,15.55
2023-03-04T10:36:35.869Z,15.81
2023-03-04T10:37:35.877Z,16.00
2023-03-04T10:38:35.851Z,15.22
2023-03-04T10:39:35.818Z,15.76
2023-03-04T10:40:35.827Z,15.30
2023-03-04T10:41:35.886Z,14.74
2023-03-04T10:42:36.046Z,16.05
2023-03-04T10:44:56.006Z,15.77
2023-03-04T10:45:55.863Z,14.98
2023-03-04T10:46:55.378Z,15.61
2023-03-04T10:47:55.488Z,15.87
2023-03-04T10:48:55.355Z,13.65
2023-03-04T10:49:55.383Z,15.62
2023-03-04T10:50:55.353Z,15.06
2023-03-04T10:51:57.521Z,15.83
2023-03-04T10:52:55.680Z,15.18
2023-03-04T10:53:55.514Z,14.93
2023-03-04T10:54:55.355Z,14.71
2023-03-04T10:55:55.363Z,15.61
2023-03-04T10:56:55.463Z,14.95
2023-03-04T10:57:57.771Z,14.64
2023-03-04T10:58:55.793Z,15.15
2023-03-04T10:59:55.655Z,15.25
2023-03-04T11:00:55.676Z,13.99
2023-03-04T11:01:55.670Z,14.64
2023-03-04T11:02:55.685Z,14.84
2023-03-04T11:03:55.717Z,14.46
2023-03-04T11:04:55.760Z,15.34
2023-03-04T11:05:55.854Z,15.25
2023-03-04T11:06:55.913Z,14.22
2023-03-04T11:07:57.534Z,14.97
2023-03-04T12:49:02.464Z,8.96
2023-03-04T13:38:03.470Z,6.73
2023-03-04T13:39:01.714Z,7.27
2023-03-04T13:40:01.760Z,6.18
2023-03-04T13:41:01.645Z,7.68
2023-03-04T13:42:01.596Z,7.33
2023-03-04T13:45:34.132Z,12.65
2023-03-04T13:50:12.250Z,6.29
2023-03-04T13:51:27.213Z,6.30
2023-03-04T13:52:12.812Z,6.43
2023-03-04T13:53:11.989Z,7.05
2023-03-04T13:56:05.509Z,8.88
2023-03-04T14:51:04.390Z,5.71
2023-03-04T14:52:04.292Z,5.38
2023-03-04T14:53:04.191Z,5.21
2023-03-04T14:54:04.339Z,5.83
2023-03-04T14:55:04.298Z,5.59
2023-03-04T14:56:04.545Z,4.85
2023-03-04T14:57:04.180Z,5.00
2023-03-04T14:58:04.203Z,4.66
2023-03-04T14:59:04.205Z,5.11
2023-03-04T15:00:04.189Z,5.57
2023-03-04T15:01:04.156Z,5.80
2023-03-04T15:02:04.102Z,5.98
2023-03-04T15:03:04.115Z,7.08
2023-03-04T15:04:04.238Z,5.95
2023-03-04T15:05:07.763Z,6.12
2023-03-04T15:06:05.094Z,6.97
2023-03-04T15:07:04.097Z,7.61
2023-03-04T15:08:04.068Z,7.39
2023-03-04T15:09:04.123Z,7.74
2023-03-04T15:10:04.095Z,8.72
2023-03-04T15:11:04.059Z,9.12
2023-03-04T15:12:04.062Z,8.30
2023-03-04T15:47:55.737Z,15.72
2023-03-04T15:48:55.382Z,14.58
2023-03-04T15:49:55.718Z,13.43
2023-03-04T15:50:54.992Z,15.15
2023-03-04T15:53:14.591Z,14.86
2023-03-04T15:54:14.451Z,16.19
2023-03-04T15:55:14.343Z,16.50
2023-03-04T15:56:14.447Z,16.03
2023-03-04T15:57:14.379Z,15.22
2023-03-04T15:58:14.344Z,16.87
2023-03-04T15:59:14.360Z,16.29
2023-03-04T16:00:14.396Z,15.91
2023-03-04T16:01:14.356Z,16.26
2023-03-04T16:02:14.338Z,16.96
2023-03-04T16:03:14.347Z,15.90
2023-03-04T16:04:14.396Z,16.46
2023-03-04T16:05:14.427Z,16.26
2023-03-04T16:06:14.295Z,16.31
2023-03-04T16:07:14.335Z,16.45
2023-03-04T16:08:14.294Z,16.51
2023-03-04T16:09:14.331Z,17.40
2023-03-04T16:10:14.294Z,16.26
2023-03-04T16:11:14.566Z,16.47
2023-03-04T16:12:14.501Z,17.75
2023-03-04T16:13:14.460Z,16.53
2023-03-04T16:14:14.482Z,18.30
2023-03-04T16:15:14.462Z,17.67
2023-03-04T16:16:14.655Z,18.83
2023-03-04T16:17:14.564Z,18.29
2023-03-04T16:18:14.604Z,18.29
2023-03-04T16:19:14.639Z,18.38
2023-03-04T16:20:14.757Z,18.50
2023-03-04T16:21:14.729Z,18.82
2023-03-04T16:22:14.811Z,18.66
2023-03-04T16:23:14.832Z,19.23
2023-03-04T16:24:14.883Z,19.50
2023-03-04T16:25:14.894Z,18.74
2023-03-04T16:26:15.676Z,18.07
2023-03-04T16:27:15.468Z,19.22
2023-03-04T16:28:15.050Z,19.54
2023-03-04T16:29:15.147Z,19.80
2023-03-04T16:30:15.073Z,18.70
2023-03-04T16:31:15.124Z,20.08
2023-03-04T16:32:15.187Z,20.25
2023-03-04T16:33:16.068Z,20.70
2023-03-04T16:34:15.136Z,20.89
2023-03-04T16:35:15.168Z,22.66
2023-03-04T17:07:21.588Z,24.62
2023-03-04T17:08:21.877Z,26.01
2023-03-04T17:09:21.665Z,23.62
2023-03-04T17:11:58.759Z,24.29
2023-03-04T17:14:21.138Z,26.97
2023-03-04T17:15:21.249Z,28.68
2023-03-04T17:16:21.309Z,27.94
2023-03-04T17:25:21.429Z,25.95
2023-03-04T17:26:21.814Z,28.72
2023-03-04T17:27:21.337Z,29.77
2023-03-04T17:28:21.428Z,29.61
2023-03-04T17:29:21.344Z,29.99
2023-03-04T17:30:21.264Z,28.96
2023-03-04T17:31:21.339Z,29.29
2023-03-04T17:32:21.275Z,27.98
2023-03-04T17:33:21.223Z,28.36
2023-03-04T17:34:21.308Z,29.10
2023-03-04T17:35:21.252Z,28.11
2023-03-04T17:36:21.212Z,29.62
2023-03-04T17:37:21.222Z,30.53
2023-03-04T17:38:21.197Z,29.25
2023-03-04T17:39:21.233Z,30.02
2023-03-04T17:40:21.226Z,29.55
2023-03-04T17:47:02.321Z,24.96
2023-03-04T17:48:01.692Z,32.17
2023-03-04T17:50:21.255Z,32.41
2023-03-04T17:51:21.385Z,32.90
2023-03-04T17:52:21.151Z,33.47
2023-03-04T17:53:21.165Z,31.88
2023-03-04T17:54:21.100Z,31.45
2023-03-04T17:55:21.100Z,33.77
2023-03-04T17:56:21.162Z,32.94
2023-03-04T17:57:21.122Z,30.75
2023-03-04T17:58:21.088Z,33.79
2023-03-04T17:59:21.085Z,32.82
2023-03-04T18:11:41.025Z,32.07
2023-03-04T18:12:57.047Z,32.76
2023-03-04T18:13:40.874Z,33.62
2023-03-04T18:14:41.200Z,32.90
2023-03-04T18:17:01.094Z,35.73
2023-03-04T18:18:00.796Z,34.37
2023-03-04T18:19:01.069Z,34.61
2023-03-04T18:20:01.664Z,33.85
2023-03-04T18:22:21.011Z,39.86
2023-03-04T18:23:20.758Z,40.70
2023-03-04T18:24:20.989Z,41.90
2023-03-04T18:25:20.697Z,42.12
2023-03-04T18:26:21.235Z,36.97
2023-03-04T18:27:20.679Z,33.54
2023-03-04T18:28:20.622Z,37.80
2023-03-04T18:29:20.636Z,34.62
2023-03-04T18:30:20.682Z,35.92
2023-03-04T18:31:20.712Z,35.59
2023-03-04T18:32:20.677Z,34.08
2023-03-04T18:33:20.613Z,34.59
2023-03-04T18:34:20.621Z,34.42
2023-03-04T18:35:20.651Z,36.39
2023-03-04T18:36:20.597Z,35.56
2023-03-04T18:37:20.604Z,34.10
2023-03-04T18:38:20.584Z,34.92
2023-03-04T18:39:20.576Z,35.72
2023-03-04T18:40:20.570Z,34.41
2023-03-04T18:41:20.604Z,35.09
2023-03-04T18:42:20.572Z,34.62
2023-03-04T18:43:20.538Z,36.39
2023-03-04T18:44:20.545Z,39.02
2023-03-04T18:45:20.540Z,39.63
2023-03-04T18:46:20.506Z,37.27
2023-03-04T18:47:20.522Z,36.61
2023-03-04T18:48:20.565Z,35.34
2023-03-04T18:49:21.045Z,32.65
2023-03-04T18:50:20.499Z,32.80
2023-03-04T18:51:20.501Z,32.66
2023-03-04T18:52:20.481Z,33.61
2023-03-04T18:53:20.490Z,34.72
2023-03-04T18:54:20.564Z,35.03
2023-03-04T18:55:20.895Z,32.60
2023-03-04T18:56:20.471Z,33.36
2023-03-04T18:57:20.440Z,30.97
2023-03-04T18:58:20.439Z,34.10
2023-03-04T18:59:20.424Z,33.59
2023-03-04T19:00:20.408Z,33.91
2023-03-04T19:02:20.660Z,32.95
2023-03-04T19:03:20.763Z,34.88
2023-03-04T19:04:20.466Z,35.77
2023-03-04T19:05:20.447Z,32.46
2023-03-04T19:06:20.470Z,32.21
2023-03-04T19:07:20.369Z,31.88
2023-03-04T19:08:20.420Z,34.41
2023-03-04T19:09:20.422Z,36.25
2023-03-04T19:10:20.437Z,34.59
2023-03-04T19:11:20.683Z,30.52
2023-03-04T19:12:20.412Z,32.02
2023-03-04T19:13:20.339Z,32.92
2023-03-04T19:14:20.366Z,33.01
2023-03-04T19:25:20.257Z,38.60
2023-03-04T19:38:26.141Z,39.47
2023-03-04T20:43:45.275Z,32.26
2023-03-04T20:51:45.219Z,33.90
2023-03-04T20:52:45.183Z,33.77
2023-03-04T20:53:45.191Z,34.04
2023-03-04T20:54:45.192Z,35.38
2023-03-04T20:55:45.213Z,33.52
2023-03-04T20:56:45.147Z,35.39
2023-03-04T21:16:33.184Z,9.71
2023-03-04T21:17:32.494Z,35.99
2023-03-04T21:19:53.020Z,37.48
2023-03-04T21:32:26.533Z,34.35
2023-03-04T21:33:26.116Z,37.92
2023-03-04T21:34:26.049Z,37.27
2023-03-04T21:40:36.005Z,35.71
2023-03-04T21:49:26.453Z,35.62
2023-03-04T22:16:29.357Z,35.84
2023-03-04T22:17:28.766Z,37.45
2023-03-04T22:24:49.341Z,22.22
2023-03-04T22:31:42.613Z,33.29
2023-03-04T23:08:59.411Z,41.10
2023-03-04T23:09:59.297Z,36.43
2023-03-04T23:10:58.891Z,34.36
2023-03-04T23:14:42.293Z,18.29
2023-03-04T23:17:40.788Z,25.60
2023-03-04T23:18:40.849Z,36.40
2023-03-04T23:35:40.874Z,36.88
2023-03-04T23:40:42.658Z,26.32
